sensor_id;sensor_type;location;lat;lon;timestamp;temperature;humidity
7077;DHT22;3579;48.956;9.154;2022-08-19T00:01:32;27.90;51.80
7077;DHT22;3579;48.956;9.154;2022-08-19T00:04:02;28.00;51.80
7077;DHT22;3579;48.956;9.154;2022-08-19T00:06:29;27.90;51.80
7077;DHT22;3579;48.956;9.154;2022-08-19T00:08:57;27.90;51.70
7077;DHT22;3579;48.956;9.154;2022-08-19T00:11:23;27.90;51.80
7077;DHT22;3579;48.956;9.154;2022-08-19T00:13:54;27.90;51.80
7077;DHT22;3579;48.956;9.154;2022-08-19T00:16:20;27.90;51.80
7077;DHT22;3579;48.956;9.154;2022-08-19T00:18:47;27.90;51.80
7077;DHT22;3579;48.956;9.154;2022-08-19T00:21:14;27.90;51.80
7077;DHT22;3579;48.956;9.154;2022-08-19T00:23:40;27.90;51.90
7077;DHT22;3579;48.956;9.154;2022-08-19T00:26:07;27.90;51.90
7077;DHT22;3579;48.956;9.154;2022-08-19T00:28:33;27.90;51.80
7077;DHT22;3579;48.956;9.154;2022-08-19T00:31:02;27.90;51.80
7077;DHT22;3579;48.956;9.154;2022-08-19T00:33:29;27.90;51.90
7077;DHT22;3579;48.956;9.154;2022-08-19T00:36:02;27.90;51.90
7077;DHT22;3579;48.956;9.154;2022-08-19T00:38:30;27.90;52.00
7077;DHT22;3579;48.956;9.154;2022-08-19T00:40:56;27.80;51.90
7077;DHT22;3579;48.956;9.154;2022-08-19T00:43:24;27.80;51.80
7077;DHT22;3579;48.956;9.154;2022-08-19T00:45:51;27.90;51.90
7077;DHT22;3579;48.956;9.154;2022-08-19T00:48:18;27.80;51.90
7077;DHT22;3579;48.956;9.154;2022-08-19T00:50:45;27.80;51.90
7077;DHT22;3579;48.956;9.154;2022-08-19T00:53:14;27.80;51.90
7077;DHT22;3579;48.956;9.154;2022-08-19T00:55:45;27.80;51.90
7077;DHT22;3579;48.956;9.154;2022-08-19T00:58:15;27.80;51.90
7077;DHT22;3579;48.956;9.154;2022-08-19T01:00:41;27.80;51.90
7077;DHT22;3579;48.956;9.154;2022-08-19T01:03:10;27.80;51.90
7077;DHT22;3579;48.956;9.154;2022-08-19T01:05:37;27.80;51.90
7077;DHT22;3579;48.956;9.154;2022-08-19T01:08:06;27.80;51.90
7077;DHT22;3579;48.956;9.154;2022-08-19T01:10:40;27.80;51.90
7077;DHT22;3579;48.956;9.154;2022-08-19T01:13:07;27.80;52.10
7077;DHT22;3579;48.956;9.154;2022-08-19T01:15:38;27.80;52.00
7077;DHT22;3579;48.956;9.154;2022-08-19T01:18:08;27.80;52.00
7077;DHT22;3579;48.956;9.154;2022-08-19T01:20:35;27.80;52.00
7077;DHT22;3579;48.956;9.154;2022-08-19T01:23:01;27.80;52.00
7077;DHT22;3579;48.956;9.154;2022-08-19T01:25:44;27.80;52.00
7077;DHT22;3579;48.956;9.154;2022-08-19T01:28:23;27.80;52.00
7077;DHT22;3579;48.956;9.154;2022-08-19T01:30:49;27.80;52.00
7077;DHT22;3579;48.956;9.154;2022-08-19T01:33:15;27.80;52.00
7077;DHT22;3579;48.956;9.154;2022-08-19T01:35:41;27.70;52.00
7077;DHT22;3579;48.956;9.154;2022-08-19T01:38:10;27.70;52.00
7077;DHT22;3579;48.956;9.154;2022-08-19T01:40:44;27.70;52.00
7077;DHT22;3579;48.956;9.154;2022-08-19T01:43:10;27.70;52.00
7077;DHT22;3579;48.956;9.154;2022-08-19T01:45:37;27.70;52.00
7077;DHT22;3579;48.956;9.154;2022-08-19T01:48:06;27.70;52.00
7077;DHT22;3579;48.956;9.154;2022-08-19T01:50:34;27.70;52.00
7077;DHT22;3579;48.956;9.154;2022-08-19T01:53:02;27.70;52.10
7077;DHT22;3579;48.956;9.154;2022-08-19T01:55:29;27.70;52.10
7077;DHT22;3579;48.956;9.154;2022-08-19T01:57:58;27.70;52.10
7077;DHT22;3579;48.956;9.154;2022-08-19T02:00:27;27.70;52.10
7077;DHT22;3579;48.956;9.154;2022-08-19T02:02:54;27.70;52.00
7077;DHT22;3579;48.956;9.154;2022-08-19T02:05:20;27.70;52.10
7077;DHT22;3579;48.956;9.154;2022-08-19T02:07:47;27.70;52.10
7077;DHT22;3579;48.956;9.154;2022-08-19T02:10:19;27.70;52.10
7077;DHT22;3579;48.956;9.154;2022-08-19T02:12:45;27.70;52.10
7077;DHT22;3579;48.956;9.154;2022-08-19T02:15:11;27.70;52.20
7077;DHT22;3579;48.956;9.154;2022-08-19T02:17:38;27.70;52.00
7077;DHT22;3579;48.956;9.154;2022-08-19T02:20:05;27.70;52.10
7077;DHT22;3579;48.956;9.154;2022-08-19T02:22:32;27.70;52.20
7077;DHT22;3579;48.956;9.154;2022-08-19T02:24:58;27.70;52.10
7077;DHT22;3579;48.956;9.154;2022-08-19T02:27:24;27.70;52.10
7077;DHT22;3579;48.956;9.154;2022-08-19T02:29:52;27.60;52.10
7077;DHT22;3579;48.956;9.154;2022-08-19T02:32:18;27.70;52.20
7077;DHT22;3579;48.956;9.154;2022-08-19T02:34:46;27.60;52.10
7077;DHT22;3579;48.956;9.154;2022-08-19T02:37:13;27.60;52.10
7077;DHT22;3579;48.956;9.154;2022-08-19T02:39:58;27.60;52.10
7077;DHT22;3579;48.956;9.154;2022-08-19T02:42:24;27.60;52.10
7077;DHT22;3579;48.956;9.154;2022-08-19T02:44:50;27.60;52.10
7077;DHT22;3579;48.956;9.154;2022-08-19T02:47:18;27.60;52.10
7077;DHT22;3579;48.956;9.154;2022-08-19T02:49:45;27.60;52.10
7077;DHT22;3579;48.956;9.154;2022-08-19T02:52:11;27.60;52.10
7077;DHT22;3579;48.956;9.154;2022-08-19T02:54:38;27.60;52.10
7077;DHT22;3579;48.956;9.154;2022-08-19T02:57:04;27.60;52.10
7077;DHT22;3579;48.956;9.154;2022-08-19T02:59:31;27.60;52.10
7077;DHT22;3579;48.956;9.154;2022-08-19T03:01:57;27.60;52.20
7077;DHT22;3579;48.956;9.154;2022-08-19T03:04:24;27.60;52.20
7077;DHT22;3579;48.956;9.154;2022-08-19T03:06:50;27.60;52.20
7077;DHT22;3579;48.956;9.154;2022-08-19T03:09:19;27.60;52.30
7077;DHT22;3579;48.956;9.154;2022-08-19T03:11:45;27.50;52.20
7077;DHT22;3579;48.956;9.154;2022-08-19T03:14:12;27.60;52.20
7077;DHT22;3579;48.956;9.154;2022-08-19T03:16:50;27.60;52.20
7077;DHT22;3579;48.956;9.154;2022-08-19T03:19:18;27.50;52.20
7077;DHT22;3579;48.956;9.154;2022-08-19T03:21:45;27.50;52.20
7077;DHT22;3579;48.956;9.154;2022-08-19T03:24:12;27.50;52.20
7077;DHT22;3579;48.956;9.154;2022-08-19T03:26:47;27.60;52.30
7077;DHT22;3579;48.956;9.154;2022-08-19T03:29:14;27.50;52.20
7077;DHT22;3579;48.956;9.154;2022-08-19T03:31:42;27.50;52.30
7077;DHT22;3579;48.956;9.154;2022-08-19T03:34:10;27.50;52.20
7077;DHT22;3579;48.956;9.154;2022-08-19T03:36:37;27.50;52.20
7077;DHT22;3579;48.956;9.154;2022-08-19T03:39:04;27.50;52.20
7077;DHT22;3579;48.956;9.154;2022-08-19T03:41:32;27.60;52.20
7077;DHT22;3579;48.956;9.154;2022-08-19T03:43:59;27.50;52.20
7077;DHT22;3579;48.956;9.154;2022-08-19T03:46:29;27.50;52.20
7077;DHT22;3579;48.956;9.154;2022-08-19T03:48:57;27.50;52.20
7077;DHT22;3579;48.956;9.154;2022-08-19T03:51:32;27.50;52.20
7077;DHT22;3579;48.956;9.154;2022-08-19T03:54:00;27.50;52.20
7077;DHT22;3579;48.956;9.154;2022-08-19T03:56:27;27.50;52.20
7077;DHT22;3579;48.956;9.154;2022-08-19T03:58:55;27.50;52.20
7077;DHT22;3579;48.956;9.154;2022-08-19T04:01:24;27.50;52.30
7077;DHT22;3579;48.956;9.154;2022-08-19T04:03:52;27.50;52.30
7077;DHT22;3579;48.956;9.154;2022-08-19T04:06:22;27.50;52.30
7077;DHT22;3579;48.956;9.154;2022-08-19T04:08:51;27.50;52.30
7077;DHT22;3579;48.956;9.154;2022-08-19T04:11:19;27.50;52.30
7077;DHT22;3579;48.956;9.154;2022-08-19T04:13:49;27.50;52.40
7077;DHT22;3579;48.956;9.154;2022-08-19T04:16:18;27.50;52.30
7077;DHT22;3579;48.956;9.154;2022-08-19T04:18:46;27.50;52.30
7077;DHT22;3579;48.956;9.154;2022-08-19T04:21:19;27.40;52.30
7077;DHT22;3579;48.956;9.154;2022-08-19T04:23:45;27.50;52.30
7077;DHT22;3579;48.956;9.154;2022-08-19T04:26:17;27.50;52.40
7077;DHT22;3579;48.956;9.154;2022-08-19T04:28:44;27.40;52.30
7077;DHT22;3579;48.956;9.154;2022-08-19T04:31:16;27.40;52.30
7077;DHT22;3579;48.956;9.154;2022-08-19T04:33:43;27.50;52.30
7077;DHT22;3579;48.956;9.154;2022-08-19T04:36:22;27.50;52.30
7077;DHT22;3579;48.956;9.154;2022-08-19T04:38:50;27.40;52.20
7077;DHT22;3579;48.956;9.154;2022-08-19T04:41:19;27.40;52.30
7077;DHT22;3579;48.956;9.154;2022-08-19T04:44:03;27.40;52.20
7077;DHT22;3579;48.956;9.154;2022-08-19T04:46:30;27.40;52.20
7077;DHT22;3579;48.956;9.154;2022-08-19T04:49:02;27.40;52.20
7077;DHT22;3579;48.956;9.154;2022-08-19T04:51:28;27.40;52.30
7077;DHT22;3579;48.956;9.154;2022-08-19T04:53:57;27.40;52.20
7077;DHT22;3579;48.956;9.154;2022-08-19T04:56:24;27.40;52.20
7077;DHT22;3579;48.956;9.154;2022-08-19T04:58:53;27.40;52.20
7077;DHT22;3579;48.956;9.154;2022-08-19T05:01:22;27.40;52.20
7077;DHT22;3579;48.956;9.154;2022-08-19T05:03:49;27.40;52.20
7077;DHT22;3579;48.956;9.154;2022-08-19T05:06:16;27.40;52.10
7077;DHT22;3579;48.956;9.154;2022-08-19T05:08:43;27.40;52.20
7077;DHT22;3579;48.956;9.154;2022-08-19T05:11:18;27.40;52.20
7077;DHT22;3579;48.956;9.154;2022-08-19T05:13:46;27.40;52.20
7077;DHT22;3579;48.956;9.154;2022-08-19T05:16:16;27.40;52.20
7077;DHT22;3579;48.956;9.154;2022-08-19T05:18:43;27.40;52.20
7077;DHT22;3579;48.956;9.154;2022-08-19T05:21:28;27.40;52.20
7077;DHT22;3579;48.956;9.154;2022-08-19T05:24:14;27.40;52.20
7077;DHT22;3579;48.956;9.154;2022-08-19T05:26:46;27.30;52.30
7077;DHT22;3579;48.956;9.154;2022-08-19T05:29:15;27.30;52.50
7077;DHT22;3579;48.956;9.154;2022-08-19T05:31:41;27.20;52.60
7077;DHT22;3579;48.956;9.154;2022-08-19T05:34:08;27.20;52.50
7077;DHT22;3579;48.956;9.154;2022-08-19T05:36:40;27.30;52.50
7077;DHT22;3579;48.956;9.154;2022-08-19T05:39:09;27.20;52.80
7077;DHT22;3579;48.956;9.154;2022-08-19T05:41:36;27.20;52.80
7077;DHT22;3579;48.956;9.154;2022-08-19T05:44:06;27.20;52.60
7077;DHT22;3579;48.956;9.154;2022-08-19T05:46:36;27.20;53.00
7077;DHT22;3579;48.956;9.154;2022-08-19T05:49:04;27.20;53.30
7077;DHT22;3579;48.956;9.154;2022-08-19T05:51:33;27.10;53.00
7077;DHT22;3579;48.956;9.154;2022-08-19T05:54:01;27.10;53.30
7077;DHT22;3579;48.956;9.154;2022-08-19T05:56:30;27.10;53.00
7077;DHT22;3579;48.956;9.154;2022-08-19T05:58:58;27.10;53.20
7077;DHT22;3579;48.956;9.154;2022-08-19T06:01:25;27.20;53.00
7077;DHT22;3579;48.956;9.154;2022-08-19T06:03:52;27.10;52.80
7077;DHT22;3579;48.956;9.154;2022-08-19T06:06:19;27.20;52.80
7077;DHT22;3579;48.956;9.154;2022-08-19T06:08:45;27.20;52.80
7077;DHT22;3579;48.956;9.154;2022-08-19T06:11:20;27.20;52.70
7077;DHT22;3579;48.956;9.154;2022-08-19T06:13:52;27.20;52.70
7077;DHT22;3579;48.956;9.154;2022-08-19T06:16:19;27.20;52.80
7077;DHT22;3579;48.956;9.154;2022-08-19T06:18:51;27.20;53.30
7077;DHT22;3579;48.956;9.154;2022-08-19T06:21:22;27.20;53.30
7077;DHT22;3579;48.956;9.154;2022-08-19T06:23:48;27.10;53.40
7077;DHT22;3579;48.956;9.154;2022-08-19T06:26:16;27.10;53.00
7077;DHT22;3579;48.956;9.154;2022-08-19T06:28:42;27.20;53.10
7077;DHT22;3579;48.956;9.154;2022-08-19T06:31:14;27.10;53.30
7077;DHT22;3579;48.956;9.154;2022-08-19T06:33:41;27.10;53.70
7077;DHT22;3579;48.956;9.154;2022-08-19T06:36:15;27.00;53.30
7077;DHT22;3579;48.956;9.154;2022-08-19T06:38:42;27.00;53.50
7077;DHT22;3579;48.956;9.154;2022-08-19T06:41:09;26.90;53.80
7077;DHT22;3579;48.956;9.154;2022-08-19T06:43:35;26.70;54.60
7077;DHT22;3579;48.956;9.154;2022-08-19T06:46:02;26.60;55.20
7077;DHT22;3579;48.956;9.154;2022-08-19T06:48:30;26.40;55.70
7077;DHT22;3579;48.956;9.154;2022-08-19T06:50:56;26.40;55.90
7077;DHT22;3579;48.956;9.154;2022-08-19T06:53:22;26.30;56.00
7077;DHT22;3579;48.956;9.154;2022-08-19T06:55:48;26.30;56.00
7077;DHT22;3579;48.956;9.154;2022-08-19T06:58:14;26.20;56.30
7077;DHT22;3579;48.956;9.154;2022-08-19T07:00:40;26.20;56.40
7077;DHT22;3579;48.956;9.154;2022-08-19T07:03:06;26.00;56.90
7077;DHT22;3579;48.956;9.154;2022-08-19T07:05:33;26.00;56.90
7077;DHT22;3579;48.956;9.154;2022-08-19T07:08:03;26.00;56.80
7077;DHT22;3579;48.956;9.154;2022-08-19T07:10:32;25.80;57.40
7077;DHT22;3579;48.956;9.154;2022-08-19T07:12:58;25.70;57.50
7077;DHT22;3579;48.956;9.154;2022-08-19T07:15:24;25.80;57.50
7077;DHT22;3579;48.956;9.154;2022-08-19T07:17:50;25.90;57.30
7077;DHT22;3579;48.956;9.154;2022-08-19T07:20:17;26.00;57.20
7077;DHT22;3579;48.956;9.154;2022-08-19T07:22:43;25.90;57.50
7077;DHT22;3579;48.956;9.154;2022-08-19T07:25:09;25.70;57.90
7077;DHT22;3579;48.956;9.154;2022-08-19T07:27:36;25.80;57.90
7077;DHT22;3579;48.956;9.154;2022-08-19T07:30:03;25.70;58.00
7077;DHT22;3579;48.956;9.154;2022-08-19T07:32:30;25.60;58.30
7077;DHT22;3579;48.956;9.154;2022-08-19T07:34:57;25.60;58.20
7077;DHT22;3579;48.956;9.154;2022-08-19T07:37:24;25.70;58.20
7077;DHT22;3579;48.956;9.154;2022-08-19T07:39:52;25.60;58.30
7077;DHT22;3579;48.956;9.154;2022-08-19T07:42:18;25.50;58.40
7077;DHT22;3579;48.956;9.154;2022-08-19T07:44:47;25.40;58.70
7077;DHT22;3579;48.956;9.154;2022-08-19T07:47:13;25.40;58.90
7077;DHT22;3579;48.956;9.154;2022-08-19T07:49:41;25.40;58.90
7077;DHT22;3579;48.956;9.154;2022-08-19T07:52:09;25.30;59.00
7077;DHT22;3579;48.956;9.154;2022-08-19T07:54:37;25.40;58.80
7077;DHT22;3579;48.956;9.154;2022-08-19T07:57:05;25.40;59.60
7077;DHT22;3579;48.956;9.154;2022-08-19T07:59:31;25.10;59.50
7077;DHT22;3579;48.956;9.154;2022-08-19T08:01:58;25.10;59.60
7077;DHT22;3579;48.956;9.154;2022-08-19T08:04:26;25.30;59.50
7077;DHT22;3579;48.956;9.154;2022-08-19T08:07:11;25.30;59.50
7077;DHT22;3579;48.956;9.154;2022-08-19T08:09:56;25.20;59.60
7077;DHT22;3579;48.956;9.154;2022-08-19T08:12:28;25.20;59.70
7077;DHT22;3579;48.956;9.154;2022-08-19T08:14:59;25.10;60.10
7077;DHT22;3579;48.956;9.154;2022-08-19T08:17:29;25.00;60.40
7077;DHT22;3579;48.956;9.154;2022-08-19T08:19:56;24.90;60.50
7077;DHT22;3579;48.956;9.154;2022-08-19T08:22:23;25.00;60.40
7077;DHT22;3579;48.956;9.154;2022-08-19T08:25:20;24.90;60.80
7077;DHT22;3579;48.956;9.154;2022-08-19T08:27:47;24.90;60.60
7077;DHT22;3579;48.956;9.154;2022-08-19T08:30:20;25.00;60.70
7077;DHT22;3579;48.956;9.154;2022-08-19T08:32:47;25.00;60.60
7077;DHT22;3579;48.956;9.154;2022-08-19T08:35:18;25.00;60.70
7077;DHT22;3579;48.956;9.154;2022-08-19T08:37:56;24.90;61.00
7077;DHT22;3579;48.956;9.154;2022-08-19T08:40:50;24.90;61.30
7077;DHT22;3579;48.956;9.154;2022-08-19T08:43:31;24.80;61.40
7077;DHT22;3579;48.956;9.154;2022-08-19T08:46:07;24.80;61.40
7077;DHT22;3579;48.956;9.154;2022-08-19T08:48:56;24.90;61.40
7077;DHT22;3579;48.956;9.154;2022-08-19T08:51:34;25.00;61.20
7077;DHT22;3579;48.956;9.154;2022-08-19T08:54:06;25.00;60.80
7077;DHT22;3579;48.956;9.154;2022-08-19T08:56:41;24.90;61.30
7077;DHT22;3579;48.956;9.154;2022-08-19T08:59:28;24.90;61.40
7077;DHT22;3579;48.956;9.154;2022-08-19T09:01:56;24.90;61.60
7077;DHT22;3579;48.956;9.154;2022-08-19T09:04:23;25.00;61.60
7077;DHT22;3579;48.956;9.154;2022-08-19T09:09:42;25.00;61.80
7077;DHT22;3579;48.956;9.154;2022-08-19T09:12:34;25.00;61.80
7077;DHT22;3579;48.956;9.154;2022-08-19T09:15:12;24.80;62.30
7077;DHT22;3579;48.956;9.154;2022-08-19T09:17:49;24.90;62.30
7077;DHT22;3579;48.956;9.154;2022-08-19T09:20:23;24.90;62.40
7077;DHT22;3579;48.956;9.154;2022-08-19T09:22:51;24.90;62.50
7077;DHT22;3579;48.956;9.154;2022-08-19T09:25:20;24.90;62.20
7077;DHT22;3579;48.956;9.154;2022-08-19T09:27:51;25.00;62.10
7077;DHT22;3579;48.956;9.154;2022-08-19T09:30:28;25.10;61.70
7077;DHT22;3579;48.956;9.154;2022-08-19T09:32:58;25.10;62.20
7077;DHT22;3579;48.956;9.154;2022-08-19T09:35:27;25.10;62.30
7077;DHT22;3579;48.956;9.154;2022-08-19T09:37:55;25.10;62.40
7077;DHT22;3579;48.956;9.154;2022-08-19T09:40:23;24.90;63.00
7077;DHT22;3579;48.956;9.154;2022-08-19T09:42:49;24.80;63.30
7077;DHT22;3579;48.956;9.154;2022-08-19T09:45:17;24.90;62.90
7077;DHT22;3579;48.956;9.154;2022-08-19T09:47:46;24.90;62.90
7077;DHT22;3579;48.956;9.154;2022-08-19T09:50:13;25.00;63.00
7077;DHT22;3579;48.956;9.154;2022-08-19T09:52:40;25.00;63.10
7077;DHT22;3579;48.956;9.154;2022-08-19T09:55:10;25.00;62.90
7077;DHT22;3579;48.956;9.154;2022-08-19T09:57:37;25.10;62.50
7077;DHT22;3579;48.956;9.154;2022-08-19T10:00:06;25.00;62.80
7077;DHT22;3579;48.956;9.154;2022-08-19T10:02:34;24.90;63.00
7077;DHT22;3579;48.956;9.154;2022-08-19T10:05:00;25.00;62.80
7077;DHT22;3579;48.956;9.154;2022-08-19T10:07:46;25.00;62.80
7077;DHT22;3579;48.956;9.154;2022-08-19T10:10:12;25.10;62.50
7077;DHT22;3579;48.956;9.154;2022-08-19T10:12:38;25.10;62.80
7077;DHT22;3579;48.956;9.154;2022-08-19T10:15:06;25.20;62.60
7077;DHT22;3579;48.956;9.154;2022-08-19T10:17:33;25.30;62.40
7077;DHT22;3579;48.956;9.154;2022-08-19T10:20:01;25.30;62.50
7077;DHT22;3579;48.956;9.154;2022-08-19T10:22:32;25.20;62.50
7077;DHT22;3579;48.956;9.154;2022-08-19T10:24:59;25.30;62.50
7077;DHT22;3579;48.956;9.154;2022-08-19T10:27:26;25.30;62.60
7077;DHT22;3579;48.956;9.154;2022-08-19T10:29:52;25.20;62.50
7077;DHT22;3579;48.956;9.154;2022-08-19T10:32:19;25.30;62.40
7077;DHT22;3579;48.956;9.154;2022-08-19T10:34:47;25.30;61.90
7077;DHT22;3579;48.956;9.154;2022-08-19T10:37:16;25.30;61.70
7077;DHT22;3579;48.956;9.154;2022-08-19T10:39:45;25.40;60.80
7077;DHT22;3579;48.956;9.154;2022-08-19T10:42:14;25.40;60.00
7077;DHT22;3579;48.956;9.154;2022-08-19T10:44:42;25.60;59.50
7077;DHT22;3579;48.956;9.154;2022-08-19T10:47:08;25.70;59.30
7077;DHT22;3579;48.956;9.154;2022-08-19T10:49:35;25.80;59.10
7077;DHT22;3579;48.956;9.154;2022-08-19T10:52:21;25.90;58.90
7077;DHT22;3579;48.956;9.154;2022-08-19T10:55:04;26.00;58.70
7077;DHT22;3579;48.956;9.154;2022-08-19T10:57:49;26.10;58.60
7077;DHT22;3579;48.956;9.154;2022-08-19T11:00:16;26.10;58.40
7077;DHT22;3579;48.956;9.154;2022-08-19T11:02:42;25.70;58.00
7077;DHT22;3579;48.956;9.154;2022-08-19T11:05:09;26.20;58.20
7077;DHT22;3579;48.956;9.154;2022-08-19T11:07:39;26.20;58.30
7077;DHT22;3579;48.956;9.154;2022-08-19T11:10:07;26.30;58.50
7077;DHT22;3579;48.956;9.154;2022-08-19T11:12:39;26.30;58.50
7077;DHT22;3579;48.956;9.154;2022-08-19T11:15:08;26.30;58.40
7077;DHT22;3579;48.956;9.154;2022-08-19T11:17:39;26.30;58.50
7077;DHT22;3579;48.956;9.154;2022-08-19T11:20:11;26.30;58.40
7077;DHT22;3579;48.956;9.154;2022-08-19T11:22:38;26.40;58.10
7077;DHT22;3579;48.956;9.154;2022-08-19T11:25:05;26.40;58.00
7077;DHT22;3579;48.956;9.154;2022-08-19T11:27:31;26.40;57.80
7077;DHT22;3579;48.956;9.154;2022-08-19T11:29:57;26.40;58.20
7077;DHT22;3579;48.956;9.154;2022-08-19T11:32:23;26.30;57.70
7077;DHT22;3579;48.956;9.154;2022-08-19T11:34:50;26.30;57.60
7077;DHT22;3579;48.956;9.154;2022-08-19T11:37:17;26.40;57.50
7077;DHT22;3579;48.956;9.154;2022-08-19T11:39:43;26.40;57.40
7077;DHT22;3579;48.956;9.154;2022-08-19T11:42:09;26.40;57.40
7077;DHT22;3579;48.956;9.154;2022-08-19T11:44:54;26.50;57.40
7077;DHT22;3579;48.956;9.154;2022-08-19T11:47:21;26.40;57.40
7077;DHT22;3579;48.956;9.154;2022-08-19T11:49:51;26.40;57.50
7077;DHT22;3579;48.956;9.154;2022-08-19T11:52:19;26.50;57.60
7077;DHT22;3579;48.956;9.154;2022-08-19T11:54:46;26.50;57.40
7077;DHT22;3579;48.956;9.154;2022-08-19T11:57:13;26.50;57.30
7077;DHT22;3579;48.956;9.154;2022-08-19T11:59:48;26.60;57.30
7077;DHT22;3579;48.956;9.154;2022-08-19T12:02:16;26.60;57.20
7077;DHT22;3579;48.956;9.154;2022-08-19T12:04:43;26.70;57.20
7077;DHT22;3579;48.956;9.154;2022-08-19T12:07:10;26.70;57.10
7077;DHT22;3579;48.956;9.154;2022-08-19T12:09:37;26.70;57.10
7077;DHT22;3579;48.956;9.154;2022-08-19T12:12:05;26.70;57.00
7077;DHT22;3579;48.956;9.154;2022-08-19T12:14:32;26.70;57.00
7077;DHT22;3579;48.956;9.154;2022-08-19T12:17:05;26.70;56.90
7077;DHT22;3579;48.956;9.154;2022-08-19T12:19:36;26.70;56.70
7077;DHT22;3579;48.956;9.154;2022-08-19T12:22:03;26.70;56.60
7077;DHT22;3579;48.956;9.154;2022-08-19T12:24:33;26.70;56.70
7077;DHT22;3579;48.956;9.154;2022-08-19T12:27:02;26.70;56.50
7077;DHT22;3579;48.956;9.154;2022-08-19T12:29:35;26.70;56.40
7077;DHT22;3579;48.956;9.154;2022-08-19T12:32:07;26.70;56.30
7077;DHT22;3579;48.956;9.154;2022-08-19T12:34:35;26.70;56.30
7077;DHT22;3579;48.956;9.154;2022-08-19T12:37:04;26.70;56.50
7077;DHT22;3579;48.956;9.154;2022-08-19T12:39:36;26.70;56.50
7077;DHT22;3579;48.956;9.154;2022-08-19T12:42:04;26.70;56.60
7077;DHT22;3579;48.956;9.154;2022-08-19T12:44:33;26.70;56.50
7077;DHT22;3579;48.956;9.154;2022-08-19T12:47:01;26.70;56.20
7077;DHT22;3579;48.956;9.154;2022-08-19T12:49:29;26.70;56.30
7077;DHT22;3579;48.956;9.154;2022-08-19T12:51:56;26.70;56.00
7077;DHT22;3579;48.956;9.154;2022-08-19T12:54:28;26.80;56.00
7077;DHT22;3579;48.956;9.154;2022-08-19T12:56:57;26.70;55.50
7077;DHT22;3579;48.956;9.154;2022-08-19T12:59:25;26.80;55.10
7077;DHT22;3579;48.956;9.154;2022-08-19T13:01:51;26.70;54.80
7077;DHT22;3579;48.956;9.154;2022-08-19T13:04:18;26.80;55.00
7077;DHT22;3579;48.956;9.154;2022-08-19T13:06:44;26.80;54.60
7077;DHT22;3579;48.956;9.154;2022-08-19T13:09:10;26.70;54.50
7077;DHT22;3579;48.956;9.154;2022-08-19T13:11:37;26.80;54.50
7077;DHT22;3579;48.956;9.154;2022-08-19T13:14:04;26.70;54.50
7077;DHT22;3579;48.956;9.154;2022-08-19T13:16:31;26.70;54.50
7077;DHT22;3579;48.956;9.154;2022-08-19T13:18:58;26.70;54.40
7077;DHT22;3579;48.956;9.154;2022-08-19T13:21:26;26.70;54.40
7077;DHT22;3579;48.956;9.154;2022-08-19T13:23:55;26.70;54.50
7077;DHT22;3579;48.956;9.154;2022-08-19T13:26:22;26.70;54.70
7077;DHT22;3579;48.956;9.154;2022-08-19T13:28:48;26.70;54.80
7077;DHT22;3579;48.956;9.154;2022-08-19T13:31:35;26.70;54.80
7077;DHT22;3579;48.956;9.154;2022-08-19T13:34:28;26.70;54.90
7077;DHT22;3579;48.956;9.154;2022-08-19T13:36:55;26.80;54.70
7077;DHT22;3579;48.956;9.154;2022-08-19T13:39:22;26.80;54.80
7077;DHT22;3579;48.956;9.154;2022-08-19T13:41:49;26.90;54.90
7077;DHT22;3579;48.956;9.154;2022-08-19T13:44:16;26.90;54.40
7077;DHT22;3579;48.956;9.154;2022-08-19T13:46:47;26.70;54.10
7077;DHT22;3579;48.956;9.154;2022-08-19T13:49:15;26.60;54.10
7077;DHT22;3579;48.956;9.154;2022-08-19T13:51:42;26.50;54.20
7077;DHT22;3579;48.956;9.154;2022-08-19T13:54:09;26.40;54.20
7077;DHT22;3579;48.956;9.154;2022-08-19T13:56:41;26.40;54.60
7077;DHT22;3579;48.956;9.154;2022-08-19T13:59:07;26.40;54.60
7077;DHT22;3579;48.956;9.154;2022-08-19T14:01:33;26.40;54.40
7077;DHT22;3579;48.956;9.154;2022-08-19T14:04:01;26.40;54.40
7077;DHT22;3579;48.956;9.154;2022-08-19T14:06:28;26.30;54.70
7077;DHT22;3579;48.956;9.154;2022-08-19T14:08:54;26.40;55.00
7077;DHT22;3579;48.956;9.154;2022-08-19T14:11:20;26.40;54.80
7077;DHT22;3579;48.956;9.154;2022-08-19T14:13:49;26.50;54.60
7077;DHT22;3579;48.956;9.154;2022-08-19T14:16:16;26.60;54.60
7077;DHT22;3579;48.956;9.154;2022-08-19T14:18:43;26.70;54.50
7077;DHT22;3579;48.956;9.154;2022-08-19T14:21:20;26.70;54.70
7077;DHT22;3579;48.956;9.154;2022-08-19T14:23:48;26.80;54.70
7077;DHT22;3579;48.956;9.154;2022-08-19T14:26:16;26.60;54.90
7077;DHT22;3579;48.956;9.154;2022-08-19T14:28:43;26.40;55.30
7077;DHT22;3579;48.956;9.154;2022-08-19T14:31:11;26.20;55.90
7077;DHT22;3579;48.956;9.154;2022-08-19T14:33:37;26.20;56.20
7077;DHT22;3579;48.956;9.154;2022-08-19T14:36:04;26.20;56.40
7077;DHT22;3579;48.956;9.154;2022-08-19T14:38:31;26.30;56.00
7077;DHT22;3579;48.956;9.154;2022-08-19T14:41:26;26.40;55.70
7077;DHT22;3579;48.956;9.154;2022-08-19T14:43:54;26.60;55.50
7077;DHT22;3579;48.956;9.154;2022-08-19T14:46:22;26.70;55.30
7077;DHT22;3579;48.956;9.154;2022-08-19T14:48:50;26.80;55.20
7077;DHT22;3579;48.956;9.154;2022-08-19T14:51:18;26.90;55.10
7077;DHT22;3579;48.956;9.154;2022-08-19T14:53:45;26.90;55.30
7077;DHT22;3579;48.956;9.154;2022-08-19T14:56:16;27.00;55.10
7077;DHT22;3579;48.956;9.154;2022-08-19T14:58:43;27.00;55.00
7077;DHT22;3579;48.956;9.154;2022-08-19T15:01:11;27.00;54.90
7077;DHT22;3579;48.956;9.154;2022-08-19T15:03:39;27.10;54.90
7077;DHT22;3579;48.956;9.154;2022-08-19T15:06:06;27.10;54.90
7077;DHT22;3579;48.956;9.154;2022-08-19T15:08:34;27.10;54.80
7077;DHT22;3579;48.956;9.154;2022-08-19T15:11:01;27.10;54.90
7077;DHT22;3579;48.956;9.154;2022-08-19T15:13:28;27.10;54.80
7077;DHT22;3579;48.956;9.154;2022-08-19T15:15:56;27.10;54.70
7077;DHT22;3579;48.956;9.154;2022-08-19T15:18:23;27.10;54.70
7077;DHT22;3579;48.956;9.154;2022-08-19T15:20:49;27.10;54.70
7077;DHT22;3579;48.956;9.154;2022-08-19T15:23:16;27.20;54.60
7077;DHT22;3579;48.956;9.154;2022-08-19T15:25:43;27.20;54.60
7077;DHT22;3579;48.956;9.154;2022-08-19T15:28:10;27.20;54.60
7077;DHT22;3579;48.956;9.154;2022-08-19T15:30:38;27.20;54.60
7077;DHT22;3579;48.956;9.154;2022-08-19T15:33:05;27.20;54.60
7077;DHT22;3579;48.956;9.154;2022-08-19T15:35:31;27.20;54.50
7077;DHT22;3579;48.956;9.154;2022-08-19T15:37:58;27.20;54.40
7077;DHT22;3579;48.956;9.154;2022-08-19T15:40:25;27.30;54.50
7077;DHT22;3579;48.956;9.154;2022-08-19T15:42:52;27.30;54.40
7077;DHT22;3579;48.956;9.154;2022-08-19T15:45:20;27.30;54.30
7077;DHT22;3579;48.956;9.154;2022-08-19T15:47:46;27.30;54.30
7077;DHT22;3579;48.956;9.154;2022-08-19T15:50:18;27.30;54.30
7077;DHT22;3579;48.956;9.154;2022-08-19T15:52:53;27.40;54.30
7077;DHT22;3579;48.956;9.154;2022-08-19T15:55:22;27.40;54.30
7077;DHT22;3579;48.956;9.154;2022-08-19T15:57:50;27.40;54.30
7077;DHT22;3579;48.956;9.154;2022-08-19T16:00:34;27.40;54.30
7077;DHT22;3579;48.956;9.154;2022-08-19T16:03:19;27.40;54.20
7077;DHT22;3579;48.956;9.154;2022-08-19T16:06:23;27.40;54.20
7077;DHT22;3579;48.956;9.154;2022-08-19T16:08:54;27.50;54.20
7077;DHT22;3579;48.956;9.154;2022-08-19T16:11:22;27.50;54.20
7077;DHT22;3579;48.956;9.154;2022-08-19T16:13:52;27.50;54.20
7077;DHT22;3579;48.956;9.154;2022-08-19T16:16:25;27.50;54.20
7077;DHT22;3579;48.956;9.154;2022-08-19T16:18:54;27.50;54.20